EWG371 ESSA-EDDK
Flight info
| Callsign | EWG371 |
|---|---|
| Flight time | 1h 44m |
| Altitude | 38000 |
| Route | NOSLI N850 ABAMA DCT GIMRU DCT LARBU Z189 RUNER T858 KOPAG KOPAG1B |
| Aircraft | A320/M-SDE3FGHIRWY/LB1 |
Departure
| Time | 2026-05-06 17:35 |
|---|---|
| Airport | Stockholm-Arlanda Airport (ESSA) |
Arrival
| Time | 2026-05-06 19:19 |
|---|---|
| Airport | Cologne Bonn Airport (EDDK) |
| Time | Latitude | Longitude | Altitude | Speed | Heading |
|---|---|---|---|---|---|
| 2026-05-06 17:06 | 59.64739 | 17.92521 | 138 ft | 0 kts | 37° |
| 2026-05-06 17:25 | 59.64728 | 17.92504 | 137 ft | 2 kts | 34° |
| 2026-05-06 17:26 | 59.64713 | 17.92490 | 137 ft | 2 kts | 359° |
| 2026-05-06 17:26 | 59.64698 | 17.92500 | 137 ft | 2 kts | 290° |
| 2026-05-06 17:26 | 59.64698 | 17.92501 | 137 ft | 0 kts | 286° |
| 2026-05-06 17:28 | 59.64706 | 17.92428 | 137 ft | 13 kts | 279° |
| 2026-05-06 17:29 | 59.64720 | 17.92292 | 138 ft | 7 kts | 284° |
| 2026-05-06 17:29 | 59.64734 | 17.92198 | 138 ft | 9 kts | 288° |
| 2026-05-06 17:29 | 59.64773 | 17.92077 | 138 ft | 9 kts | 339° |
| 2026-05-06 17:29 | 59.64850 | 17.92092 | 138 ft | 16 kts | 12° |
| 2026-05-06 17:30 | 59.64994 | 17.92145 | 138 ft | 23 kts | 9° |
| 2026-05-06 17:30 | 59.65144 | 17.92195 | 138 ft | 21 kts | 12° |
| 2026-05-06 17:30 | 59.65280 | 17.92251 | 138 ft | 19 kts | 11° |
| 2026-05-06 17:30 | 59.65405 | 17.92297 | 138 ft | 18 kts | 9° |
| 2026-05-06 17:31 | 59.65560 | 17.92349 | 138 ft | 30 kts | 10° |
| 2026-05-06 17:31 | 59.65757 | 17.92419 | 138 ft | 24 kts | 11° |
| 2026-05-06 17:31 | 59.65884 | 17.92451 | 138 ft | 12 kts | 343° |
| 2026-05-06 17:31 | 59.65917 | 17.92324 | 139 ft | 9 kts | 283° |
| 2026-05-06 17:32 | 59.65930 | 17.92195 | 144 ft | 11 kts | 281° |
| 2026-05-06 17:32 | 59.65903 | 17.92112 | 145 ft | 6 kts | 185° |
| 2026-05-06 17:32 | 59.65896 | 17.92109 | 145 ft | 0 kts | 189° |
| 2026-05-06 17:34 | 59.65803 | 17.92076 | 144 ft | 48 kts | 190° |
| 2026-05-06 17:34 | 59.65238 | 17.91869 | 144 ft | 114 kts | 190° |
| 2026-05-06 17:34 | 59.64300 | 17.91536 | 351 ft | 146 kts | 187° |
| 2026-05-06 17:35 | 59.63301 | 17.91168 | 1086 ft | 146 kts | 190° |
| 2026-05-06 17:35 | 59.62274 | 17.90792 | 1632 ft | 161 kts | 190° |
| 2026-05-06 17:35 | 59.61107 | 17.90227 | 2088 ft | 182 kts | 208° |
| 2026-05-06 17:36 | 59.59500 | 17.85693 | 3254 ft | 217 kts | 241° |
| 2026-05-06 17:36 | 59.58810 | 17.83018 | 4167 ft | 221 kts | 241° |
| 2026-05-06 17:36 | 59.58108 | 17.80234 | 4649 ft | 239 kts | 244° |
| 2026-05-06 17:36 | 59.57364 | 17.77142 | 4758 ft | 254 kts | 243° |
| 2026-05-06 17:37 | 59.56352 | 17.74262 | 4968 ft | 261 kts | 224° |
| 2026-05-06 17:37 | 59.54879 | 17.72178 | 5949 ft | 267 kts | 210° |
| 2026-05-06 17:37 | 59.53171 | 17.70381 | 6421 ft | 291 kts | 208° |
| 2026-05-06 17:37 | 59.51312 | 17.68525 | 7093 ft | 304 kts | 208° |
| 2026-05-06 17:38 | 59.49406 | 17.66662 | 8016 ft | 308 kts | 208° |
| 2026-05-06 17:38 | 59.47483 | 17.64795 | 9012 ft | 310 kts | 209° |
| 2026-05-06 17:38 | 59.45541 | 17.62904 | 9966 ft | 313 kts | 209° |
| 2026-05-06 17:38 | 59.43580 | 17.60988 | 10839 ft | 316 kts | 209° |
| 2026-05-06 17:39 | 59.41603 | 17.59053 | 11721 ft | 318 kts | 209° |
| 2026-05-06 17:39 | 59.39616 | 17.57108 | 12596 ft | 321 kts | 209° |
| 2026-05-06 17:39 | 59.37609 | 17.55144 | 13463 ft | 324 kts | 209° |
| 2026-05-06 17:39 | 59.35587 | 17.53167 | 14239 ft | 326 kts | 209° |
| 2026-05-06 17:40 | 59.33543 | 17.51172 | 14985 ft | 329 kts | 209° |
| 2026-05-06 17:40 | 59.31492 | 17.49176 | 15729 ft | 331 kts | 210° |
| 2026-05-06 17:40 | 59.29425 | 17.47171 | 16466 ft | 333 kts | 210° |
| 2026-05-06 17:40 | 59.27335 | 17.45145 | 17148 ft | 336 kts | 210° |
| 2026-05-06 17:41 | 59.25255 | 17.43131 | 17861 ft | 339 kts | 210° |
| 2026-05-06 17:41 | 59.23138 | 17.41076 | 18544 ft | 341 kts | 210° |
| 2026-05-06 17:41 | 59.20999 | 17.38997 | 19192 ft | 343 kts | 210° |
| 2026-05-06 17:41 | 59.18852 | 17.36919 | 19828 ft | 345 kts | 210° |
| 2026-05-06 17:42 | 59.16700 | 17.34844 | 20474 ft | 346 kts | 211° |
| 2026-05-06 17:42 | 59.14533 | 17.32767 | 21112 ft | 347 kts | 211° |
| 2026-05-06 17:42 | 59.12358 | 17.30684 | 21735 ft | 349 kts | 211° |
| 2026-05-06 17:42 | 59.10178 | 17.28591 | 22346 ft | 351 kts | 211° |
| 2026-05-06 17:43 | 59.08000 | 17.26428 | 22943 ft | 351 kts | 215° |
| 2026-05-06 17:43 | 59.05998 | 17.23749 | 23526 ft | 348 kts | 223° |
| 2026-05-06 17:43 | 59.04138 | 17.20735 | 24013 ft | 349 kts | 224° |
| 2026-05-06 17:43 | 59.02294 | 17.17750 | 24456 ft | 351 kts | 223° |
| 2026-05-06 17:44 | 59.00411 | 17.14709 | 24881 ft | 354 kts | 223° |
| 2026-05-06 17:44 | 58.98511 | 17.11645 | 25356 ft | 355 kts | 223° |
| 2026-05-06 17:44 | 58.96607 | 17.08585 | 25832 ft | 356 kts | 223° |
| 2026-05-06 17:44 | 58.94695 | 17.05520 | 26310 ft | 357 kts | 222° |
| 2026-05-06 17:45 | 58.92770 | 17.02439 | 26779 ft | 359 kts | 222° |
| 2026-05-06 17:45 | 58.90846 | 16.99361 | 27230 ft | 360 kts | 222° |
| 2026-05-06 17:45 | 58.88910 | 16.96268 | 27684 ft | 361 kts | 222° |
| 2026-05-06 17:45 | 58.86961 | 16.93152 | 27908 ft | 368 kts | 221° |
| 2026-05-06 17:46 | 58.84967 | 16.89966 | 28047 ft | 377 kts | 221° |
| 2026-05-06 17:46 | 58.82923 | 16.86711 | 28176 ft | 384 kts | 221° |
| 2026-05-06 17:46 | 58.80842 | 16.83400 | 28317 ft | 391 kts | 221° |
| 2026-05-06 17:46 | 58.78725 | 16.80041 | 28449 ft | 397 kts | 221° |
| 2026-05-06 17:47 | 58.76604 | 16.76690 | 28649 ft | 401 kts | 221° |
| 2026-05-06 17:47 | 58.74439 | 16.73273 | 28930 ft | 404 kts | 221° |
| 2026-05-06 17:47 | 58.72264 | 16.69845 | 29362 ft | 402 kts | 220° |
| 2026-05-06 17:47 | 58.70104 | 16.66442 | 29852 ft | 400 kts | 220° |
| 2026-05-06 17:48 | 58.67954 | 16.63060 | 30324 ft | 398 kts | 220° |
| 2026-05-06 17:48 | 58.65818 | 16.59704 | 30716 ft | 397 kts | 220° |
| 2026-05-06 17:48 | 58.63684 | 16.56361 | 31088 ft | 396 kts | 220° |
| 2026-05-06 17:48 | 58.61547 | 16.53024 | 31455 ft | 395 kts | 220° |
| 2026-05-06 17:49 | 58.59412 | 16.49693 | 31814 ft | 395 kts | 220° |
| 2026-05-06 17:49 | 58.57293 | 16.46381 | 32267 ft | 392 kts | 220° |
| 2026-05-06 17:49 | 58.55183 | 16.43091 | 32727 ft | 389 kts | 220° |
| 2026-05-06 17:49 | 58.53082 | 16.39826 | 33056 ft | 390 kts | 220° |
| 2026-05-06 17:50 | 58.50969 | 16.36542 | 33366 ft | 390 kts | 220° |
| 2026-05-06 17:50 | 58.48859 | 16.33270 | 33698 ft | 390 kts | 220° |
| 2026-05-06 17:50 | 58.46772 | 16.30042 | 34042 ft | 390 kts | 220° |
| 2026-05-06 17:50 | 58.44665 | 16.26792 | 34318 ft | 390 kts | 220° |
| 2026-05-06 17:51 | 58.42550 | 16.23531 | 34568 ft | 391 kts | 220° |
| 2026-05-06 17:51 | 58.40430 | 16.20265 | 34809 ft | 393 kts | 220° |
| 2026-05-06 17:51 | 58.38299 | 16.16986 | 35037 ft | 394 kts | 220° |
| 2026-05-06 17:51 | 58.36154 | 16.13696 | 35252 ft | 395 kts | 220° |
| 2026-05-06 17:52 | 58.34007 | 16.10408 | 35480 ft | 397 kts | 220° |
| 2026-05-06 17:52 | 58.31853 | 16.07107 | 35697 ft | 398 kts | 220° |
| 2026-05-06 17:52 | 58.29695 | 16.03801 | 35851 ft | 400 kts | 220° |
| 2026-05-06 17:52 | 58.27512 | 16.00466 | 35990 ft | 403 kts | 220° |
| 2026-05-06 17:53 | 58.25323 | 15.97128 | 36206 ft | 404 kts | 220° |
| 2026-05-06 17:53 | 58.23127 | 15.93792 | 36399 ft | 405 kts | 220° |
| 2026-05-06 17:53 | 58.20920 | 15.90447 | 36602 ft | 406 kts | 220° |
| 2026-05-06 17:53 | 58.18740 | 15.87147 | 36806 ft | 407 kts | 220° |
| 2026-05-06 17:54 | 58.16522 | 15.83792 | 37021 ft | 408 kts | 220° |
| 2026-05-06 17:54 | 58.14304 | 15.80447 | 37217 ft | 409 kts | 220° |
| 2026-05-06 17:54 | 58.12077 | 15.77092 | 37418 ft | 410 kts | 220° |
| 2026-05-06 17:54 | 58.09842 | 15.73731 | 37619 ft | 410 kts | 220° |
| 2026-05-06 17:55 | 58.07608 | 15.70368 | 37815 ft | 411 kts | 220° |
| 2026-05-06 17:55 | 58.05366 | 15.66998 | 37934 ft | 413 kts | 220° |
| 2026-05-06 17:55 | 58.00848 | 15.60243 | 37986 ft | 415 kts | 220° |
| 2026-05-06 17:56 | 57.96302 | 15.53595 | 37978 ft | 416 kts | 219° |
| 2026-05-06 17:56 | 57.91608 | 15.47100 | 37977 ft | 416 kts | 218° |
| 2026-05-06 17:57 | 57.86954 | 15.40762 | 37973 ft | 416 kts | 218° |
| 2026-05-06 17:57 | 57.82280 | 15.34355 | 38005 ft | 416 kts | 218° |
| 2026-05-06 17:58 | 57.77614 | 15.27936 | 37995 ft | 416 kts | 218° |
| 2026-05-06 17:58 | 57.72933 | 15.21535 | 37998 ft | 416 kts | 218° |
| 2026-05-06 17:59 | 57.68254 | 15.15168 | 37997 ft | 416 kts | 218° |
| 2026-05-06 17:59 | 57.63559 | 15.08798 | 37989 ft | 416 kts | 218° |
| 2026-05-06 18:00 | 57.58866 | 15.02439 | 37987 ft | 416 kts | 218° |
| 2026-05-06 18:00 | 57.54183 | 14.96114 | 37953 ft | 417 kts | 218° |
| 2026-05-06 18:01 | 57.49467 | 14.89756 | 37963 ft | 417 kts | 218° |
| 2026-05-06 18:01 | 57.44754 | 14.83445 | 37966 ft | 418 kts | 218° |
| 2026-05-06 18:02 | 57.40031 | 14.77142 | 37971 ft | 418 kts | 218° |
| 2026-05-06 18:02 | 57.35335 | 14.70896 | 37975 ft | 418 kts | 218° |
| 2026-05-06 18:03 | 57.30602 | 14.64618 | 37952 ft | 419 kts | 217° |
| 2026-05-06 18:03 | 57.25872 | 14.58351 | 37957 ft | 419 kts | 217° |
| 2026-05-06 18:04 | 57.21120 | 14.52087 | 37962 ft | 419 kts | 217° |
| 2026-05-06 18:04 | 57.16365 | 14.45833 | 37967 ft | 420 kts | 217° |
| 2026-05-06 18:05 | 57.11606 | 14.39595 | 37971 ft | 420 kts | 217° |
| 2026-05-06 18:05 | 57.06870 | 14.33407 | 37961 ft | 420 kts | 217° |
| 2026-05-06 18:06 | 57.02102 | 14.27194 | 37995 ft | 420 kts | 217° |
| 2026-05-06 18:06 | 56.97328 | 14.21003 | 37994 ft | 420 kts | 217° |
| 2026-05-06 18:07 | 56.92561 | 14.14826 | 37987 ft | 420 kts | 217° |
| 2026-05-06 18:07 | 56.87790 | 14.08662 | 37990 ft | 420 kts | 217° |
| 2026-05-06 18:08 | 56.83011 | 14.02531 | 37972 ft | 420 kts | 217° |
| 2026-05-06 18:08 | 56.78221 | 13.96409 | 37982 ft | 420 kts | 217° |
| 2026-05-06 18:09 | 56.73432 | 13.90294 | 37989 ft | 420 kts | 217° |
| 2026-05-06 18:09 | 56.68642 | 13.84190 | 37991 ft | 420 kts | 217° |
| 2026-05-06 18:10 | 56.63840 | 13.78093 | 37993 ft | 420 kts | 217° |
| 2026-05-06 18:10 | 56.59043 | 13.72018 | 37975 ft | 421 kts | 217° |
| 2026-05-06 18:11 | 56.55050 | 13.66975 | 37980 ft | 421 kts | 216° |
| 2026-05-06 18:11 | 56.49454 | 13.59941 | 37992 ft | 421 kts | 216° |
| 2026-05-06 18:12 | 56.44598 | 13.53862 | 37989 ft | 422 kts | 216° |
| 2026-05-06 18:12 | 56.39803 | 13.47873 | 37995 ft | 422 kts | 216° |
| 2026-05-06 18:13 | 56.34979 | 13.41857 | 37978 ft | 422 kts | 216° |
| 2026-05-06 18:13 | 56.30139 | 13.35847 | 37990 ft | 422 kts | 216° |
| 2026-05-06 18:14 | 56.25295 | 13.29861 | 37996 ft | 422 kts | 216° |
| 2026-05-06 18:14 | 56.21272 | 13.24893 | 37991 ft | 422 kts | 216° |
| 2026-05-06 18:15 | 56.16428 | 13.18913 | 38003 ft | 422 kts | 216° |
| 2026-05-06 18:15 | 56.11569 | 13.12963 | 37979 ft | 422 kts | 216° |
| 2026-05-06 18:16 | 56.06715 | 13.07028 | 37993 ft | 422 kts | 216° |
| 2026-05-06 18:16 | 56.01853 | 13.01097 | 37995 ft | 423 kts | 216° |
| 2026-05-06 18:17 | 55.97019 | 12.95222 | 37997 ft | 423 kts | 216° |
| 2026-05-06 18:17 | 55.92149 | 12.89325 | 38000 ft | 423 kts | 216° |
| 2026-05-06 18:18 | 55.87274 | 12.83438 | 37984 ft | 423 kts | 216° |
| 2026-05-06 18:18 | 55.82424 | 12.77592 | 37984 ft | 423 kts | 216° |
| 2026-05-06 18:19 | 55.77544 | 12.71724 | 37987 ft | 423 kts | 216° |
| 2026-05-06 18:19 | 55.72650 | 12.65881 | 37989 ft | 423 kts | 216° |
| 2026-05-06 18:20 | 55.67762 | 12.60052 | 37992 ft | 424 kts | 216° |
| 2026-05-06 18:20 | 55.62869 | 12.54224 | 37972 ft | 424 kts | 215° |
| 2026-05-06 18:21 | 55.57975 | 12.48417 | 37984 ft | 424 kts | 215° |
| 2026-05-06 18:21 | 55.53073 | 12.42621 | 37992 ft | 424 kts | 215° |
| 2026-05-06 18:22 | 55.48169 | 12.36842 | 37994 ft | 424 kts | 215° |
| 2026-05-06 18:22 | 55.43261 | 12.31076 | 37996 ft | 424 kts | 215° |
| 2026-05-06 18:23 | 55.38343 | 12.25328 | 38009 ft | 424 kts | 215° |
| 2026-05-06 18:23 | 55.33436 | 12.19590 | 38004 ft | 424 kts | 215° |
| 2026-05-06 18:24 | 55.28512 | 12.13853 | 37998 ft | 424 kts | 215° |
| 2026-05-06 18:24 | 55.23588 | 12.08146 | 37991 ft | 424 kts | 215° |
| 2026-05-06 18:25 | 55.18692 | 12.02477 | 37966 ft | 424 kts | 215° |
| 2026-05-06 18:25 | 55.13764 | 11.96782 | 37966 ft | 425 kts | 215° |
| 2026-05-06 18:26 | 55.08832 | 11.91104 | 37970 ft | 425 kts | 215° |
| 2026-05-06 18:26 | 55.03889 | 11.85438 | 37974 ft | 425 kts | 215° |
| 2026-05-06 18:27 | 54.98945 | 11.79783 | 37972 ft | 425 kts | 215° |
| 2026-05-06 18:27 | 54.93997 | 11.74133 | 37961 ft | 425 kts | 214° |
| 2026-05-06 18:28 | 54.89046 | 11.68512 | 37958 ft | 425 kts | 214° |
| 2026-05-06 18:28 | 54.84091 | 11.62902 | 37961 ft | 425 kts | 214° |
| 2026-05-06 18:29 | 54.79125 | 11.57297 | 37962 ft | 425 kts | 214° |
| 2026-05-06 18:29 | 54.74164 | 11.51701 | 37963 ft | 425 kts | 214° |
| 2026-05-06 18:30 | 54.69204 | 11.46118 | 37948 ft | 425 kts | 214° |
| 2026-05-06 18:30 | 54.64239 | 11.40555 | 37949 ft | 425 kts | 214° |
| 2026-05-06 18:31 | 54.59265 | 11.35009 | 37971 ft | 425 kts | 214° |
| 2026-05-06 18:31 | 54.54174 | 11.29806 | 37961 ft | 427 kts | 208° |
| 2026-05-06 18:32 | 54.48878 | 11.25312 | 37943 ft | 427 kts | 208° |
| 2026-05-06 18:32 | 54.43510 | 11.20783 | 37928 ft | 427 kts | 208° |
| 2026-05-06 18:33 | 54.38176 | 11.16285 | 37931 ft | 427 kts | 208° |
| 2026-05-06 18:33 | 54.32839 | 11.11789 | 37929 ft | 427 kts | 208° |
| 2026-05-06 18:34 | 54.27532 | 11.07336 | 37939 ft | 427 kts | 208° |
| 2026-05-06 18:34 | 54.22187 | 11.02867 | 37919 ft | 428 kts | 207° |
| 2026-05-06 18:35 | 54.16842 | 10.98411 | 37916 ft | 428 kts | 207° |
| 2026-05-06 18:35 | 54.11478 | 10.93959 | 37920 ft | 428 kts | 207° |
| 2026-05-06 18:36 | 54.06115 | 10.89528 | 37921 ft | 428 kts | 207° |
| 2026-05-06 18:36 | 54.00761 | 10.85104 | 37907 ft | 428 kts | 207° |
| 2026-05-06 18:37 | 53.95403 | 10.80678 | 37911 ft | 428 kts | 207° |
| 2026-05-06 18:37 | 53.90042 | 10.76265 | 37916 ft | 428 kts | 207° |
| 2026-05-06 18:38 | 53.84677 | 10.71866 | 37920 ft | 428 kts | 207° |
| 2026-05-06 18:38 | 53.79304 | 10.67473 | 37922 ft | 428 kts | 207° |
| 2026-05-06 18:39 | 53.73934 | 10.63105 | 37909 ft | 428 kts | 207° |
| 2026-05-06 18:40 | 53.65879 | 10.56564 | 37911 ft | 428 kts | 207° |
| 2026-05-06 18:40 | 53.60537 | 10.52250 | 37910 ft | 428 kts | 207° |
| 2026-05-06 18:41 | 53.55159 | 10.47919 | 37904 ft | 428 kts | 207° |
| 2026-05-06 18:41 | 53.49780 | 10.43593 | 37896 ft | 428 kts | 207° |
| 2026-05-06 18:42 | 53.44408 | 10.39279 | 37888 ft | 429 kts | 207° |
| 2026-05-06 18:42 | 53.39016 | 10.34967 | 37889 ft | 429 kts | 207° |
| 2026-05-06 18:43 | 53.33623 | 10.30667 | 37895 ft | 429 kts | 207° |
| 2026-05-06 18:43 | 53.28229 | 10.26374 | 37883 ft | 429 kts | 207° |
| 2026-05-06 18:44 | 53.22828 | 10.22089 | 37880 ft | 430 kts | 207° |
| 2026-05-06 18:44 | 53.17428 | 10.17811 | 37880 ft | 430 kts | 207° |
| 2026-05-06 18:45 | 53.12020 | 10.13548 | 37876 ft | 430 kts | 207° |
| 2026-05-06 18:45 | 53.06603 | 10.09298 | 37878 ft | 430 kts | 207° |
| 2026-05-06 18:46 | 53.01195 | 10.05045 | 37876 ft | 430 kts | 207° |
| 2026-05-06 18:46 | 52.95815 | 10.00836 | 37868 ft | 428 kts | 206° |
| 2026-05-06 18:47 | 52.90430 | 9.96643 | 37863 ft | 430 kts | 206° |
| 2026-05-06 18:47 | 52.85006 | 9.92425 | 37871 ft | 431 kts | 206° |
| 2026-05-06 18:48 | 52.79578 | 9.88218 | 37860 ft | 431 kts | 206° |
| 2026-05-06 18:48 | 52.74151 | 9.84020 | 37863 ft | 431 kts | 206° |
| 2026-05-06 18:49 | 52.68722 | 9.79835 | 37842 ft | 431 kts | 206° |
| 2026-05-06 18:49 | 52.63293 | 9.75649 | 37848 ft | 431 kts | 206° |
| 2026-05-06 18:50 | 52.57859 | 9.71475 | 37872 ft | 431 kts | 206° |
| 2026-05-06 18:50 | 52.52412 | 9.67302 | 37874 ft | 432 kts | 206° |
| 2026-05-06 18:51 | 52.46958 | 9.63143 | 37874 ft | 432 kts | 206° |
| 2026-05-06 18:51 | 52.41510 | 9.58998 | 37869 ft | 432 kts | 206° |
| 2026-05-06 18:52 | 52.36097 | 9.54888 | 37852 ft | 432 kts | 206° |
| 2026-05-06 18:52 | 52.30647 | 9.50762 | 37861 ft | 431 kts | 206° |
| 2026-05-06 18:53 | 52.25204 | 9.46646 | 37862 ft | 431 kts | 206° |
| 2026-05-06 18:53 | 52.20150 | 9.41449 | 37843 ft | 430 kts | 216° |
| 2026-05-06 18:54 | 52.15240 | 9.35880 | 37848 ft | 430 kts | 216° |
| 2026-05-06 18:54 | 52.10337 | 9.30313 | 37841 ft | 430 kts | 216° |
| 2026-05-06 18:55 | 52.05427 | 9.24746 | 37862 ft | 430 kts | 216° |
| 2026-05-06 18:55 | 52.00517 | 9.19207 | 37837 ft | 429 kts | 215° |
| 2026-05-06 18:56 | 51.95614 | 9.13685 | 37853 ft | 429 kts | 215° |
| 2026-05-06 18:56 | 51.90696 | 9.08181 | 37847 ft | 430 kts | 215° |
| 2026-05-06 18:57 | 51.85775 | 9.02681 | 37845 ft | 430 kts | 215° |
| 2026-05-06 18:57 | 51.80883 | 8.97208 | 37704 ft | 428 kts | 215° |
| 2026-05-06 18:57 | 51.78442 | 8.94483 | 37223 ft | 424 kts | 215° |
| 2026-05-06 18:58 | 51.76029 | 8.91799 | 36709 ft | 419 kts | 215° |
| 2026-05-06 18:58 | 51.73637 | 8.89145 | 36246 ft | 415 kts | 215° |
| 2026-05-06 18:58 | 51.71274 | 8.86529 | 35788 ft | 410 kts | 215° |
| 2026-05-06 18:58 | 51.68930 | 8.83943 | 35320 ft | 405 kts | 215° |
| 2026-05-06 18:59 | 51.67397 | 8.82249 | 35025 ft | 402 kts | 215° |
| 2026-05-06 18:59 | 51.65100 | 8.79707 | 34581 ft | 398 kts | 215° |
| 2026-05-06 18:59 | 51.62828 | 8.77194 | 34145 ft | 394 kts | 215° |
| 2026-05-06 18:59 | 51.60575 | 8.74712 | 33695 ft | 390 kts | 215° |
| 2026-05-06 19:00 | 51.58347 | 8.72258 | 33166 ft | 386 kts | 215° |
| 2026-05-06 19:00 | 51.56134 | 8.69738 | 31652 ft | 396 kts | 221° |
| 2026-05-06 19:00 | 51.54192 | 8.66521 | 29928 ft | 409 kts | 228° |
| 2026-05-06 19:00 | 51.52271 | 8.63055 | 27852 ft | 422 kts | 229° |
| 2026-05-06 19:01 | 51.50308 | 8.59474 | 26039 ft | 430 kts | 229° |
| 2026-05-06 19:01 | 51.48354 | 8.55898 | 24892 ft | 421 kts | 229° |
| 2026-05-06 19:01 | 51.46425 | 8.52374 | 23895 ft | 421 kts | 229° |
| 2026-05-06 19:01 | 51.44485 | 8.48849 | 23046 ft | 420 kts | 229° |
| 2026-05-06 19:02 | 51.42545 | 8.45336 | 22038 ft | 422 kts | 229° |
| 2026-05-06 19:02 | 51.40599 | 8.41818 | 21013 ft | 424 kts | 229° |
| 2026-05-06 19:02 | 51.38634 | 8.38272 | 19986 ft | 426 kts | 229° |
| 2026-05-06 19:02 | 51.36671 | 8.34729 | 19402 ft | 419 kts | 229° |
| 2026-05-06 19:03 | 51.34783 | 8.31326 | 19276 ft | 400 kts | 229° |
| 2026-05-06 19:03 | 51.32971 | 8.28074 | 19150 ft | 383 kts | 229° |
| 2026-05-06 19:03 | 51.31229 | 8.24965 | 19021 ft | 368 kts | 229° |
| 2026-05-06 19:03 | 51.29526 | 8.21926 | 18522 ft | 365 kts | 229° |
| 2026-05-06 19:04 | 51.27841 | 8.18916 | 17999 ft | 360 kts | 229° |
| 2026-05-06 19:04 | 51.26200 | 8.15983 | 17104 ft | 351 kts | 229° |
| 2026-05-06 19:04 | 51.24606 | 8.13137 | 16166 ft | 346 kts | 229° |
| 2026-05-06 19:04 | 51.23014 | 8.10296 | 15234 ft | 344 kts | 229° |
| 2026-05-06 19:05 | 51.21407 | 8.07419 | 14563 ft | 349 kts | 229° |
| 2026-05-06 19:05 | 51.19803 | 8.04555 | 14237 ft | 342 kts | 229° |
| 2026-05-06 19:05 | 51.18224 | 8.01752 | 13885 ft | 337 kts | 229° |
| 2026-05-06 19:05 | 51.16691 | 7.99035 | 13700 ft | 319 kts | 229° |
| 2026-05-06 19:06 | 51.15322 | 7.96356 | 13258 ft | 308 kts | 239° |
| 2026-05-06 19:06 | 51.14261 | 7.93456 | 13042 ft | 299 kts | 240° |
| 2026-05-06 19:06 | 51.13207 | 7.90638 | 12528 ft | 294 kts | 240° |
| 2026-05-06 19:06 | 51.12154 | 7.87850 | 11916 ft | 293 kts | 240° |
| 2026-05-06 19:07 | 51.11108 | 7.85079 | 11460 ft | 291 kts | 240° |
| 2026-05-06 19:07 | 51.10068 | 7.82324 | 10983 ft | 290 kts | 240° |
| 2026-05-06 19:07 | 51.09035 | 7.79579 | 10507 ft | 289 kts | 240° |
| 2026-05-06 19:07 | 51.08013 | 7.76862 | 10253 ft | 280 kts | 240° |
| 2026-05-06 19:08 | 51.07049 | 7.74297 | 10112 ft | 260 kts | 240° |
| 2026-05-06 19:08 | 51.06141 | 7.71879 | 9774 ft | 250 kts | 241° |
| 2026-05-06 19:08 | 51.05255 | 7.69518 | 9278 ft | 247 kts | 241° |
| 2026-05-06 19:08 | 51.04378 | 7.67180 | 8725 ft | 245 kts | 240° |
| 2026-05-06 19:09 | 51.03507 | 7.64862 | 8174 ft | 243 kts | 242° |
| 2026-05-06 19:09 | 51.02455 | 7.62777 | 7659 ft | 245 kts | 216° |
| 2026-05-06 19:09 | 51.00958 | 7.61503 | 7300 ft | 245 kts | 205° |
| 2026-05-06 19:09 | 50.99387 | 7.60447 | 6957 ft | 245 kts | 203° |
| 2026-05-06 19:10 | 50.97858 | 7.59448 | 6804 ft | 236 kts | 204° |
| 2026-05-06 19:10 | 50.96343 | 7.58469 | 6534 ft | 234 kts | 204° |
| 2026-05-06 19:10 | 50.94839 | 7.57500 | 6237 ft | 233 kts | 204° |
| 2026-05-06 19:10 | 50.93339 | 7.56530 | 5907 ft | 232 kts | 203° |
| 2026-05-06 19:11 | 50.91848 | 7.55562 | 5567 ft | 231 kts | 203° |
| 2026-05-06 19:11 | 50.90389 | 7.54618 | 5408 ft | 224 kts | 203° |
| 2026-05-06 19:11 | 50.88955 | 7.53687 | 5148 ft | 222 kts | 204° |
| 2026-05-06 19:11 | 50.87520 | 7.52767 | 4832 ft | 222 kts | 204° |
| 2026-05-06 19:12 | 50.86210 | 7.51549 | 4562 ft | 217 kts | 230° |
| 2026-05-06 19:12 | 50.85551 | 7.49487 | 4254 ft | 209 kts | 266° |
| 2026-05-06 19:12 | 50.85789 | 7.47294 | 3994 ft | 201 kts | 304° |
| 2026-05-06 19:12 | 50.86813 | 7.45870 | 3949 ft | 200 kts | 341° |
| 2026-05-06 19:13 | 50.88174 | 7.45585 | 3954 ft | 194 kts | 0° |
| 2026-05-06 19:13 | 50.89480 | 7.45675 | 3941 ft | 185 kts | 3° |
| 2026-05-06 19:13 | 50.90784 | 7.45813 | 3650 ft | 190 kts | 4° |
| 2026-05-06 19:13 | 50.92103 | 7.45946 | 3386 ft | 186 kts | 0° |
| 2026-05-06 19:14 | 50.93310 | 7.45445 | 3192 ft | 179 kts | 330° |
| 2026-05-06 19:14 | 50.94201 | 7.44104 | 2986 ft | 179 kts | 304° |
| 2026-05-06 19:14 | 50.94609 | 7.42216 | 2953 ft | 185 kts | 278° |
| 2026-05-06 19:14 | 50.94398 | 7.40196 | 2951 ft | 190 kts | 250° |
| 2026-05-06 19:15 | 50.93841 | 7.38336 | 2940 ft | 180 kts | 248° |
| 2026-05-06 19:15 | 50.93309 | 7.36576 | 2942 ft | 174 kts | 248° |
| 2026-05-06 19:15 | 50.92800 | 7.34881 | 2915 ft | 172 kts | 248° |
| 2026-05-06 19:15 | 50.92288 | 7.33177 | 2767 ft | 171 kts | 248° |
| 2026-05-06 19:16 | 50.91778 | 7.31482 | 2550 ft | 170 kts | 248° |
| 2026-05-06 19:16 | 50.91272 | 7.29799 | 2322 ft | 169 kts | 248° |
| 2026-05-06 19:16 | 50.90766 | 7.28118 | 2088 ft | 168 kts | 248° |
| 2026-05-06 19:16 | 50.90266 | 7.26459 | 1886 ft | 166 kts | 248° |
| 2026-05-06 19:17 | 50.89772 | 7.24820 | 1637 ft | 160 kts | 249° |
| 2026-05-06 19:17 | 50.89316 | 7.23314 | 1408 ft | 144 kts | 249° |
| 2026-05-06 19:17 | 50.88894 | 7.21917 | 1198 ft | 137 kts | 247° |
| 2026-05-06 19:17 | 50.88486 | 7.20563 | 1017 ft | 136 kts | 249° |
| 2026-05-06 19:18 | 50.88080 | 7.19208 | 835 ft | 137 kts | 247° |
| 2026-05-06 19:18 | 50.87673 | 7.17866 | 629 ft | 133 kts | 248° |
| 2026-05-06 19:18 | 50.87281 | 7.16553 | 447 ft | 130 kts | 247° |
| 2026-05-06 19:18 | 50.86889 | 7.15270 | 277 ft | 129 kts | 248° |
| 2026-05-06 19:19 | 50.86560 | 7.14178 | 255 ft | 77 kts | 245° |
| 2026-05-06 19:19 | 50.86419 | 7.13716 | 251 ft | 37 kts | 244° |
| 2026-05-06 19:19 | 50.86386 | 7.13477 | 251 ft | 12 kts | 297° |
| 2026-05-06 19:19 | 50.86425 | 7.13392 | 248 ft | 4 kts | 317° |
| 2026-05-06 19:20 | 50.86447 | 7.13360 | 246 ft | 1 kts | 318° |
| 2026-05-06 19:20 | 50.86449 | 7.13357 | 246 ft | 0 kts | 318° |
| 2026-05-06 19:20 | 50.86450 | 7.13356 | 246 ft | 2 kts | 319° |
| 2026-05-06 19:21 | 50.86501 | 7.13292 | 242 ft | 14 kts | 321° |
| 2026-05-06 19:21 | 50.86589 | 7.13157 | 239 ft | 21 kts | 316° |
| 2026-05-06 19:21 | 50.86720 | 7.12968 | 238 ft | 30 kts | 318° |
| 2026-05-06 19:21 | 50.86883 | 7.12733 | 240 ft | 30 kts | 318° |
| 2026-05-06 19:22 | 50.87035 | 7.12513 | 237 ft | 28 kts | 318° |
| 2026-05-06 19:22 | 50.87161 | 7.12333 | 238 ft | 18 kts | 319° |
| 2026-05-06 19:22 | 50.87249 | 7.12286 | 231 ft | 16 kts | 8° |
| 2026-05-06 19:22 | 50.87364 | 7.12346 | 230 ft | 14 kts | 15° |
| 2026-05-06 19:23 | 50.87435 | 7.12379 | 232 ft | 8 kts | 16° |
| 2026-05-06 19:23 | 50.87482 | 7.12402 | 230 ft | 6 kts | 18° |
| 2026-05-06 19:23 | 50.87528 | 7.12425 | 230 ft | 10 kts | 18° |
| 2026-05-06 19:23 | 50.87609 | 7.12469 | 230 ft | 8 kts | 19° |
| 2026-05-06 19:24 | 50.87626 | 7.12478 | 230 ft | 1 kts | 18° |
| 2026-05-06 19:24 | 50.87649 | 7.12489 | 230 ft | 6 kts | 16° |
| 2026-05-06 19:24 | 50.87705 | 7.12517 | 230 ft | 11 kts | 18° |
| 2026-05-06 19:24 | 50.87788 | 7.12561 | 230 ft | 14 kts | 18° |
| 2026-05-06 19:25 | 50.87880 | 7.12606 | 230 ft | 9 kts | 17° |
| 2026-05-06 19:25 | 50.87936 | 7.12588 | 231 ft | 9 kts | 319° |
| 2026-05-06 19:25 | 50.87995 | 7.12504 | 230 ft | 13 kts | 317° |
| 2026-05-06 19:25 | 50.88054 | 7.12411 | 230 ft | 10 kts | 310° |
| 2026-05-06 19:26 | 50.88051 | 7.12376 | 230 ft | 3 kts | 226° |
| 2026-05-06 19:26 | 50.88028 | 7.12343 | 230 ft | 6 kts | 218° |
| 2026-05-06 19:26 | 50.87991 | 7.12301 | 231 ft | 6 kts | 209° |
| 2026-05-06 19:26 | 50.87956 | 7.12301 | 230 ft | 4 kts | 176° |
| 2026-05-06 19:27 | 50.87935 | 7.12303 | 230 ft | 2 kts | 175° |
| 2026-05-06 19:27 | 50.87931 | 7.12304 | 230 ft | 0 kts | 174° |